Thornburg, Iowa
Current Conditions -  °F | °C
As of 4:35 PM on Monday 24 Nov 2014 (Local Time) from KOOA Reporting Station
Overcast Overcast  
Wind Chill: 13°   Ceiling: 2500
Heat Index: 27°   Visibility: 10mi
Dew Point: 21°   Wind: 21mph
Humidity: 79%   Direction: 280°W
Pressure: 29.77"   Gusts: 26mph
Location:  41.45°N, 92.34°W
Report Text: KOOA 242235Z AUTO 28018G23KT 10SM BKN025 OVC033 M03/M06 A2977 RMK AO2 T10281060
Loading
Personal Weather Stations






























Interactive Weather Map New forecast layout! Learn more

10-Day Weather Forecast

Advertisements
Track Severe Weather on mobile